Terminal Aerodrome Forecast
Issued by NWS

Home | Current Version | Previous Version | Text Only | Print | Product List | Glossary On
Versions: 1 2 3 4 5 6 7 8 9 10 11 12 13 14 15 16 17 18 19 20 21 22 23 24 25 26 27
120
FTUS43 KSGF 182131 AAB
TAFBBG
TAF AMD
KBBG 182131Z 1822/1918 12005KT P6SM OVC006
     FM182300 12005KT P6SM OVC008
     FM190600 12004KT 3SM BR VCSH OVC005
     FM191100 VRB03KT 3/4SM BR VCSH OVC003
     FM191300 VRB03KT 1/2SM FG OVC003
     FM191500 VRB03KT 3/4SM BR OVC003
     FM191600 VRB03KT 1SM BR OVC003=

USA.gov is the U.S. government's official web portal to all federal, state and local government web resources and services.